Time;durP1;ratioP1;P1;durP2;ratioP2;P2;SDS_P1;SDS_P2;PMS_P1;PMS_P2;Temp;Humidity;BMP_temperature;BMP_pressure;BME280_temperature;BME280_humidity;BME280_pressure;Samples;Min_cycle;Max_cycle;Signal;HPM_P1;HPM_P2
2021/01/05 00:00:57;;;;;;;69.90;43.30;;;;;;;3.01;86.71;98520.81;118783;1150;65136;-77
2021/01/05 00:03:24;;;;;;;72.60;42.27;;;;;;;2.99;86.61;98525.28;119282;1151;65630;-78
2021/01/05 00:05:50;;;;;;;64.13;39.77;;;;;;;2.93;87.26;98521.14;119261;1150;65091;-78
2021/01/05 00:08:16;;;;;;;69.90;40.90;;;;;;;2.92;87.18;98524.67;118596;1150;65058;-77
2021/01/05 00:10:43;;;;;;;66.97;40.63;;;;;;;2.89;87.14;98522.19;119226;1150;65169;-78
2021/01/05 00:13:09;;;;;;;71.90;42.60;;;;;;;2.92;87.19;98521.20;119045;1151;65112;-78
2021/01/05 00:15:36;;;;;;;70.07;43.20;;;;;;;2.93;87.15;98512.39;119232;1151;65031;-77
2021/01/05 00:18:03;;;;;;;74.47;43.43;;;;;;;2.94;87.37;98514.09;119239;1150;65123;-78
2021/01/05 00:20:32;;;;;;;68.07;39.13;;;;;;;2.92;87.08;98516.78;119237;1151;65210;-79
2021/01/05 00:22:59;;;;;;;69.97;42.30;;;;;;;2.89;87.35;98505.55;119271;1151;65128;-79
2021/01/05 00:25:27;;;;;;;67.30;41.95;;;;;;;2.92;87.71;98511.52;119024;1151;65186;-79
2021/01/05 00:27:53;;;;;;;67.03;41.53;;;;;;;2.92;87.47;98508.88;119244;1151;65117;-78
2021/01/05 00:30:24;;;;;;;67.70;41.13;;;;;;;2.91;87.66;98508.97;119062;1151;65121;-79
2021/01/05 00:32:54;;;;;;;68.43;39.60;;;;;;;2.88;87.41;98511.74;119262;1150;65283;-77
2021/01/05 00:35:28;;;;;;;59.48;33.33;;;;;;;2.85;87.49;98510.95;119257;1150;65124;-78
2021/01/05 00:37:55;;;;;;;66.10;39.40;;;;;;;2.83;87.56;98504.04;119246;1150;65102;-78
2021/01/05 00:40:23;;;;;;;66.33;37.77;;;;;;;2.83;87.63;98506.67;119234;1150;65108;-78
2021/01/05 00:42:51;;;;;;;65.63;40.50;;;;;;;2.84;87.28;98509.25;119237;1151;65136;-78
2021/01/05 00:45:25;;;;;;;61.67;36.90;;;;;;;2.87;87.42;98508.26;119263;1150;65335;-78
2021/01/05 00:47:52;;;;;;;70.50;40.23;;;;;;;2.91;87.78;98504.55;119210;1150;65080;-78
2021/01/05 00:50:18;;;;;;;65.60;38.30;;;;;;;2.93;87.45;98513.25;119230;1150;65197;-79
2021/01/05 00:52:45;;;;;;;63.33;41.10;;;;;;;2.92;87.48;98508.88;119145;1150;65025;-77
2021/01/05 00:55:13;;;;;;;68.00;39.90;;;;;;;2.91;87.43;98508.97;119226;1150;65120;-78
2021/01/05 00:57:41;;;;;;;63.40;39.80;;;;;;;2.90;87.12;98509.88;119041;1148;65129;-78
2021/01/05 01:00:11;;;;;;;65.73;40.07;;;;;;;2.89;87.48;98508.17;119234;1151;65099;-78
2021/01/05 01:02:37;;;;;;;60.23;36.50;;;;;;;2.92;87.29;98514.15;118961;1150;65151;-78
2021/01/05 01:05:05;;;;;;;59.70;36.30;;;;;;;2.95;87.36;98508.78;118848;1150;65101;-77
2021/01/05 01:07:31;;;;;;;58.00;36.23;;;;;;;2.99;87.27;98499.80;119228;1151;65210;-78
2021/01/05 01:09:57;;;;;;;62.73;37.87;;;;;;;2.99;87.17;98507.70;119234;1150;65121;-80
2021/01/05 01:12:25;;;;;;;59.33;36.70;;;;;;;2.97;87.27;98504.28;118998;1150;65114;-79
2021/01/05 01:14:53;;;;;;;62.63;37.17;;;;;;;2.96;87.05;98496.47;119118;1150;65140;-78
2021/01/05 01:17:22;;;;;;;57.53;35.13;;;;;;;2.95;87.23;98498.25;119274;1150;65129;-78
2021/01/05 01:19:49;;;;;;;53.60;34.55;;;;;;;2.93;87.23;98496.61;119025;1151;65126;-78
2021/01/05 01:22:18;;;;;;;62.73;36.87;;;;;;;2.91;86.74;98499.30;119243;1150;65123;-78
2021/01/05 01:24:45;;;;;;;55.43;36.17;;;;;;;2.91;87.01;98499.30;119242;1150;65095;-78
2021/01/05 01:27:11;;;;;;;57.80;35.87;;;;;;;2.91;87.11;98493.18;118929;1151;65183;-78
2021/01/05 01:29:37;;;;;;;56.45;31.70;;;;;;;2.89;87.75;98495.87;119153;1150;65044;-78
2021/01/05 01:32:04;;;;;;;54.87;31.80;;;;;;;2.83;87.30;98483.84;119032;1151;65120;-78
2021/01/05 01:34:31;;;;;;;52.20;32.50;;;;;;;2.83;87.41;98489.09;119206;1150;65137;-77
2021/01/05 01:37:05;;;;;;;57.17;35.07;;;;;;;2.84;87.72;98496.09;119246;1151;65069;-78
2021/01/05 01:39:34;;;;;;;59.30;35.43;;;;;;;2.85;87.40;98486.41;119250;1150;65111;-78
2021/01/05 01:42:04;;;;;;;62.27;35.35;;;;;;;2.83;87.82;98477.72;119295;1150;65140;-78
2021/01/05 01:44:33;;;;;;;;;;;;;;;2.82;87.54;98482.14;119248;1150;65140;-78
2021/01/05 01:47:24;;;;;;;60.80;33.63;;;;;;;2.79;87.93;98481.40;118948;1150;65389;-78
2021/01/05 01:50:09;;;;;;;66.10;34.40;;;;;;;2.78;88.08;98477.92;119153;1151;65215;-78
2021/01/05 01:53:01;;;;;;;60.47;33.73;;;;;;;2.80;88.24;98472.60;119193;1150;65099;-78
2021/01/05 01:56:01;;;;;;;60.77;32.87;;;;;;;2.80;88.42;98472.60;119097;1150;65458;-78
2021/01/05 01:58:54;;;;;;;64.10;36.15;;;;;;;2.82;88.28;98468.98;119226;1150;65122;-77
2021/01/05 02:01:52;;;;;;;59.53;33.33;;;;;;;2.84;88.17;98461.00;119242;1151;65265;-77
2021/01/05 02:04:44;;;;;;;62.73;34.03;;;;;;;2.85;88.21;98462.73;119274;1150;65124;-77
2021/01/05 02:07:28;;;;;;;64.17;32.47;;;;;;;2.85;88.23;98460.09;119210;1151;65075;-77
2021/01/05 02:10:39;;;;;;;54.63;29.50;;;;;;;2.82;88.05;98460.23;119226;1151;65494;-77
2021/01/05 02:13:24;;;;;;;58.15;31.50;;;;;;;2.80;88.51;98465.55;119230;1150;65119;-77
2021/01/05 02:16:24;;;;;;;54.27;30.03;;;;;;;2.83;88.54;98461.94;119201;1150;65472;-78
2021/01/05 02:18:59;;;;;;;58.07;30.50;;;;;;;2.79;88.35;98457.72;119244;1150;65439;-78
2021/01/05 02:21:31;;;;;;;57.77;32.20;;;;;;;2.80;88.32;98457.66;119242;1151;65156;-78
2021/01/05 02:24:16;;;;;;;52.63;28.30;;;;;;;2.77;88.49;98449.91;119015;1151;65213;-78
2021/01/05 02:27:04;;;;;;;47.63;27.17;;;;;;;2.74;88.34;98441.27;119096;1150;65119;-78
2021/01/05 02:29:47;;;;;;;45.30;26.40;;;;;;;2.70;88.65;98439.72;119236;1149;65126;-77
2021/01/05 02:33:05;;;;;;;43.43;27.00;;;;;;;2.68;88.55;98444.19;119238;1148;65133;-75
2021/01/05 02:35:50;;;;;;;40.10;26.00;;;;;;;2.60;88.59;98436.63;118659;1151;65139;-79
2021/01/05 02:38:45;;;;;;;43.87;24.83;;;;;;;2.56;88.61;98442.95;119217;1151;65224;-77
2021/01/05 02:41:41;;;;;;;40.73;23.37;;;;;;;2.53;88.92;98441.31;118699;1150;65054;-77
2021/01/05 02:44:29;;;;;;;37.37;22.83;;;;;;;2.52;88.95;98434.33;118604;1150;65204;-77
2021/01/05 02:47:10;;;;;;;33.00;22.27;;;;;;;2.53;89.09;98433.42;118392;1151;65121;-77
2021/01/05 02:49:45;;;;;;;42.70;26.17;;;;;;;2.55;88.83;98435.97;118667;1150;65105;-77
2021/01/05 02:52:27;;;;;;;40.10;24.95;;;;;;;2.55;89.00;98431.55;118639;1150;65120;-79
2021/01/05 02:55:09;;;;;;;36.90;24.30;;;;;;;2.54;88.84;98427.23;118795;1150;65103;-78
2021/01/05 02:57:47;;;;;;;37.57;22.63;;;;;;;2.50;89.23;98427.42;119068;1150;65223;-79
2021/01/05 03:00:25;;;;;;;38.33;23.57;;;;;;;2.46;89.24;98428.48;119199;1150;65120;-78
2021/01/05 03:03:33;;;;;;;34.65;22.25;;;;;;;2.47;89.22;98425.78;119188;1151;65117;-78
2021/01/05 03:06:18;;;;;;;38.10;21.63;;;;;;;2.48;89.04;98424.88;119224;1150;65098;-77
2021/01/05 03:08:56;;;;;;;37.45;21.80;;;;;;;2.49;89.28;98416.05;119220;1150;65140;-77
2021/01/05 03:11:34;;;;;;;37.63;24.30;;;;;;;2.47;88.98;98422.30;118902;1151;65112;-77
2021/01/05 03:14:15;;;;;;;34.35;24.35;;;;;;;2.46;89.36;98421.45;119028;1150;65155;-78
2021/01/05 03:17:02;;;;;;;33.37;22.37;;;;;;;2.44;89.31;98417.17;119232;1150;65127;-78
2021/01/05 03:19:44;;;;;;;27.57;20.03;;;;;;;2.44;89.27;98414.55;119244;1151;65095;-78
2021/01/05 03:22:15;;;;;;;34.77;21.87;;;;;;;2.41;89.07;98413.75;119295;1150;65127;-77
2021/01/05 03:24:44;;;;;;;32.27;21.30;;;;;;;2.43;89.29;98410.22;118990;1149;65199;-77
2021/01/05 03:27:14;;;;;;;34.40;21.57;;;;;;;2.44;89.19;98407.50;119217;1151;65545;-76
2021/01/05 03:29:40;;;;;;;36.50;23.77;;;;;;;2.44;89.53;98396.98;118916;1150;65213;-78
2021/01/05 03:32:09;;;;;;;40.57;24.77;;;;;;;2.44;89.16;98399.62;119064;1150;65177;-78
2021/01/05 03:34:36;;;;;;;36.98;25.17;;;;;;;2.41;89.57;98395.34;119026;1151;65184;-78
2021/01/05 03:37:03;;;;;;;34.73;23.90;;;;;;;2.39;89.40;98396.33;119261;1150;65191;-76
2021/01/05 03:39:30;;;;;;;38.67;23.77;;;;;;;2.37;89.70;98395.53;119035;1151;65150;-77
2021/01/05 03:41:56;;;;;;;33.50;23.33;;;;;;;2.36;89.56;98391.21;118913;1150;65177;-77
2021/01/05 03:44:23;;;;;;;39.40;24.77;;;;;;;2.35;89.38;98386.88;118662;1151;65122;-77
2021/01/05 03:46:49;;;;;;;34.93;21.33;;;;;;;2.31;89.56;98382.66;118729;1150;65152;-76
2021/01/05 03:49:16;;;;;;;34.37;24.10;;;;;;;2.30;89.63;98378.34;119222;1151;65115;-77
2021/01/05 03:51:42;;;;;;;49.10;29.70;;;;;;;2.29;89.40;98371.36;119280;1150;65124;-77
2021/01/05 03:54:09;;;;;;;62.43;34.43;;;;;;;2.26;89.78;98374.12;118926;1150;65188;-77
2021/01/05 03:56:35;;;;;;;48.50;28.63;;;;;;;2.26;90.01;98371.49;119177;1150;65643;-77
2021/01/05 03:59:02;;;;;;;45.53;26.00;;;;;;;2.27;89.80;98366.18;119160;1150;65160;-78
2021/01/05 04:01:28;;;;;;;38.65;23.65;;;;;;;2.28;89.29;98359.98;119007;1150;65200;-77
2021/01/05 04:03:55;;;;;;;29.75;18.95;;;;;;;2.27;89.67;98360.08;119207;1150;65121;-77
2021/01/05 04:06:26;;;;;;;33.90;22.97;;;;;;;2.22;89.45;98357.64;119264;1150;65120;-77
2021/01/05 04:08:53;;;;;;;32.55;21.60;;;;;;;2.22;89.45;98348.91;119232;1150;65121;-76
2021/01/05 04:11:20;;;;;;;33.33;20.83;;;;;;;2.18;89.59;98351.64;119254;1150;65165;-77
2021/01/05 04:13:47;;;;;;;29.77;20.17;;;;;;;2.18;89.54;98356.05;119225;1150;65107;-77
2021/01/05 04:16:13;;;;;;;28.70;21.45;;;;;;;2.16;89.49;98353.50;118998;1151;65279;-77
2021/01/05 04:18:40;;;;;;;29.05;20.35;;;;;;;2.19;89.56;98352.52;119236;1150;65133;-77
2021/01/05 04:21:06;;;;;;;33.40;21.37;;;;;;;2.19;90.10;98350.73;119246;1150;65091;-77
2021/01/05 04:23:33;;;;;;;33.43;23.50;;;;;;;2.19;89.76;98348.11;119219;1150;65030;-77
2021/01/05 04:25:59;;;;;;;32.23;21.83;;;;;;;2.21;89.63;98345.39;118933;1151;65097;-77
2021/01/05 04:28:26;;;;;;;33.17;23.70;;;;;;;2.22;89.84;98341.86;119208;1150;65108;-77
2021/01/05 04:30:52;;;;;;;37.77;26.13;;;;;;;2.25;89.72;98336.47;119263;1151;65102;-77
2021/01/05 04:33:18;;;;;;;33.70;25.05;;;;;;;2.26;89.81;98332.91;119273;1150;65096;-77
2021/01/05 04:35:45;;;;;;;33.40;24.85;;;;;;;2.29;89.87;98338.05;119261;1150;65134;-77
2021/01/05 04:38:11;;;;;;;32.77;23.40;;;;;;;2.28;89.50;98336.33;119191;1150;65265;-77
2021/01/05 04:40:44;;;;;;;33.30;22.50;;;;;;;2.32;90.00;98330.03;119252;1150;65150;-77
2021/01/05 04:43:17;;;;;;;31.60;21.07;;;;;;;2.33;89.70;98333.50;118993;1151;65127;-77
2021/01/05 04:46:04;;;;;;;26.73;19.60;;;;;;;2.32;89.61;98330.03;119256;1150;65095;-77
2021/01/05 04:48:43;;;;;;;32.60;22.87;;;;;;;2.31;89.69;98330.08;119190;1150;65524;-77
2021/01/05 04:51:55;;;;;;;32.45;22.55;;;;;;;2.31;89.84;98332.71;119232;1150;65091;-77
2021/01/05 04:54:28;;;;;;;34.30;23.40;;;;;;;2.28;89.75;98322.33;119057;1151;65162;-77
2021/01/05 04:57:09;;;;;;;31.37;21.73;;;;;;;2.23;89.69;98326.94;119214;1150;65041;-77
2021/01/05 04:59:45;;;;;;;32.10;23.07;;;;;;;2.23;90.15;98329.56;118843;1150;65128;-77
2021/01/05 05:02:46;;;;;;;30.50;22.25;;;;;;;2.29;89.64;98326.66;118902;1150;65131;-77
2021/01/05 05:05:35;;;;;;;31.15;21.65;;;;;;;2.31;89.61;98323.04;118799;1150;65574;-77
2021/01/05 05:08:29;;;;;;;32.42;22.73;;;;;;;2.33;89.79;98322.98;119243;1150;65022;-76
2021/01/05 05:11:07;;;;;;;32.93;22.33;;;;;;;2.33;89.82;98308.06;119240;1150;65517;-77
2021/01/05 05:14:20;;;;;;;30.43;22.77;;;;;;;2.34;89.77;98320.30;119239;1150;65111;-77
2021/01/05 05:16:46;;;;;;;29.90;21.40;;;;;;;2.35;89.72;98321.15;118444;1153;65714;-76
2021/01/05 05:19:28;;;;;;;27.63;22.57;;;;;;;2.34;89.76;98317.67;118451;1154;65220;-77
2021/01/05 05:22:09;;;;;;;29.23;21.60;;;;;;;2.35;89.94;98319.37;118923;1151;65251;-77
2021/01/05 05:24:42;;;;;;;30.17;20.93;;;;;;;2.36;89.52;98312.33;119257;1151;65574;-78
2021/01/05 05:27:27;;;;;;;25.87;20.33;;;;;;;2.36;89.61;98310.55;119220;1150;65198;-77
2021/01/05 05:30:01;;;;;;;26.95;19.55;;;;;;;2.40;89.70;98308.66;119240;1150;65087;-77
2021/01/05 05:32:52;;;;;;;27.57;19.93;;;;;;;2.41;89.73;98312.98;118948;1150;65204;-78
2021/01/05 05:35:46;;;;;;;29.03;19.37;;;;;;;2.45;89.79;98311.05;119229;1151;65102;-78
2021/01/05 05:38:30;;;;;;;28.47;20.03;;;;;;;2.42;89.61;98322.56;119265;1150;65164;-78
2021/01/05 05:41:27;;;;;;;24.47;17.90;;;;;;;2.44;89.43;98310.20;119208;1150;65150;-78
2021/01/05 05:44:11;;;;;;;24.47;18.77;;;;;;;2.41;89.69;98316.45;119231;1150;65570;-77
2021/01/05 05:46:41;;;;;;;23.53;19.47;;;;;;;2.39;89.41;98320.92;119203;1150;65140;-78
2021/01/05 05:49:31;;;;;;;22.50;16.83;;;;;;;2.39;89.75;98309.55;119222;1150;65209;-78
2021/01/05 05:52:02;;;;;;;23.57;18.20;;;;;;;2.41;89.50;98311.20;118861;1150;65129;-78
2021/01/05 05:54:32;;;;;;;24.87;18.60;;;;;;;2.43;89.49;98305.88;118991;1150;65229;-78
2021/01/05 05:57:14;;;;;;;25.27;18.77;;;;;;;2.41;89.54;98311.20;118999;1150;65127;-78
2021/01/05 05:59:56;;;;;;;24.70;17.90;;;;;;;2.44;89.47;98311.98;119236;1150;65193;-78
2021/01/05 06:02:24;;;;;;;25.85;19.70;;;;;;;2.41;89.57;98308.56;118936;1150;65194;-80
2021/01/05 06:04:57;;;;;;;26.97;18.47;;;;;;;2.42;89.61;98314.67;118422;1151;65101;-88
2021/01/05 06:07:24;;;;;;;19.13;15.77;;;;;;;2.43;89.64;98308.51;118636;1150;65119;-82
2021/01/05 06:09:51;;;;;;;19.63;15.80;;;;;;;2.45;89.81;98301.41;118876;1151;65127;-80
2021/01/05 06:12:17;;;;;;;21.77;16.53;;;;;;;2.51;89.72;98308.17;119093;1151;65121;-80
2021/01/05 06:14:43;;;;;;;21.53;16.47;;;;;;;2.55;89.73;98301.83;118987;1150;65159;-80
2021/01/05 06:17:10;;;;;;;20.50;16.50;;;;;;;2.56;89.80;98303.55;119280;1151;65095;-80
2021/01/05 06:19:38;;;;;;;23.73;16.73;;;;;;;2.53;89.24;98301.06;119263;1151;65088;-80
2021/01/05 06:22:04;;;;;;;22.67;17.27;;;;;;;2.50;89.46;98301.18;118701;1150;66677;-80
2021/01/05 06:24:31;;;;;;;24.60;18.87;;;;;;;2.48;89.54;98301.27;118903;1149;65281;-79
2021/01/05 06:26:57;;;;;;;23.30;17.90;;;;;;;2.46;89.69;98303.11;118724;1151;65121;-82
2021/01/05 06:29:24;;;;;;;21.63;17.93;;;;;;;2.41;89.43;98303.30;118745;1151;65153;-80
2021/01/05 06:31:50;;;;;;;25.90;20.83;;;;;;;2.43;89.64;98302.41;119092;1150;65185;-80
2021/01/05 06:34:17;;;;;;;25.33;20.87;;;;;;;2.44;89.54;98306.73;119331;1150;65114;-81
2021/01/05 06:36:43;;;;;;;28.60;21.70;;;;;;;2.44;89.38;98304.09;119331;1150;65191;-81
2021/01/05 06:39:09;;;;;;;26.30;21.03;;;;;;;2.46;89.33;98303.11;118885;1151;65108;-80
2021/01/05 06:41:36;;;;;;;29.33;22.63;;;;;;;2.48;89.66;98301.27;118683;1150;65117;-81
2021/01/05 06:44:02;;;;;;;30.47;21.67;;;;;;;2.52;89.83;98292.30;118783;1150;65210;-81
2021/01/05 06:46:29;;;;;;;28.60;22.53;;;;;;;2.56;89.79;98295.66;118787;1150;65127;-81
2021/01/05 06:48:55;;;;;;;29.13;22.30;;;;;;;2.56;89.59;98291.25;119262;1150;65203;-81
2021/01/05 06:51:21;;;;;;;29.00;21.97;;;;;;;2.55;89.55;98286.89;119146;1151;65114;-82
2021/01/05 06:53:48;;;;;;;26.33;21.00;;;;;;;2.56;89.45;98293.87;119293;1150;65188;-82
2021/01/05 06:56:14;;;;;;;28.77;22.10;;;;;;;2.57;89.38;98284.20;119299;1150;65519;-81
2021/01/05 06:58:40;;;;;;;26.07;20.83;;;;;;;2.62;89.78;98285.70;119329;1151;65140;-81
2021/01/05 07:01:07;;;;;;;28.00;21.67;;;;;;;2.64;89.41;98289.11;118732;1150;65267;-81
2021/01/05 07:03:33;;;;;;;31.87;23.37;;;;;;;2.70;89.67;98290.61;118813;1150;65124;-80
2021/01/05 07:06:00;;;;;;;42.13;34.40;;;;;;;2.72;89.84;98287.91;118694;1151;65114;-81
2021/01/05 07:08:26;;;;;;;34.90;26.60;;;;;;;2.74;89.73;98286.05;118552;1151;65127;-82
2021/01/05 07:10:53;;;;;;;27.73;21.60;;;;;;;2.75;89.64;98282.50;118805;1150;65104;-82
2021/01/05 07:13:19;;;;;;;25.45;21.35;;;;;;;2.73;89.43;98284.34;119330;1150;65115;-80
2021/01/05 07:15:46;;;;;;;25.80;20.75;;;;;;;2.69;89.37;98274.91;119311;1150;65217;-81
2021/01/05 07:18:12;;;;;;;31.30;21.67;;;;;;;2.70;89.28;98279.23;119275;1150;65127;-80
2021/01/05 07:20:39;;;;;;;30.50;21.37;;;;;;;2.68;89.25;98274.03;118847;1151;65111;-80
2021/01/05 07:23:05;;;;;;;31.37;24.73;;;;;;;2.67;89.43;98269.70;119101;1150;65118;-81
2021/01/05 07:25:31;;;;;;;33.03;25.07;;;;;;;2.69;89.37;98274.91;119291;1150;65591;-80
2021/01/05 07:27:58;;;;;;;26.27;20.43;;;;;;;2.64;89.39;98270.70;119219;1150;65171;-81
2021/01/05 07:30:24;;;;;;;26.73;21.63;;;;;;;2.62;89.81;98269.06;118740;1150;65146;-80
2021/01/05 07:32:51;;;;;;;25.87;19.67;;;;;;;2.62;89.96;98272.55;118714;1151;65211;-81
2021/01/05 07:35:17;;;;;;;22.55;17.40;;;;;;;2.63;89.43;98276.02;119138;1150;65564;-80
2021/01/05 07:37:44;;;;;;;21.87;18.73;;;;;;;2.66;89.85;98268.02;119151;1151;65108;-82
2021/01/05 07:40:14;;;;;;;23.97;20.23;;;;;;;2.65;89.53;98266.28;118600;1151;65206;-80
2021/01/05 07:42:41;;;;;;;27.93;22.00;;;;;;;2.63;89.48;98266.38;118813;1150;65133;-82
2021/01/05 07:45:15;;;;;;;29.77;21.27;;;;;;;2.64;89.50;98269.86;119081;1150;65207;-80
2021/01/05 07:47:42;;;;;;;27.13;21.37;;;;;;;2.69;89.51;98261.75;118973;1151;65146;-82
2021/01/05 07:50:31;;;;;;;28.80;21.63;;;;;;;2.72;89.28;98261.61;118951;1150;65548;-82
2021/01/05 07:52:58;;;;;;;26.52;19.80;;;;;;;2.71;89.43;98257.25;119080;1150;65097;-80
2021/01/05 07:55:26;;;;;;;27.40;21.75;;;;;;;2.74;89.69;98270.25;118831;1151;65034;-82
2021/01/05 07:57:54;;;;;;;26.33;20.90;;;;;;;2.75;89.65;98261.45;118752;1151;65122;-81
2021/01/05 08:00:24;;;;;;;32.50;25.37;;;;;;;2.80;89.74;98269.98;118773;1150;65132;-81
2021/01/05 08:02:53;;;;;;;29.23;23.80;;;;;;;2.82;89.64;98263.73;118829;1150;65126;-81
2021/01/05 08:05:23;;;;;;;26.70;21.60;;;;;;;2.76;89.10;98264.00;118864;1151;65126;-81
2021/01/05 08:07:49;;;;;;;34.23;25.80;;;;;;;2.68;88.93;98258.25;118838;1150;65092;-82
2021/01/05 08:10:20;;;;;;;34.07;26.73;;;;;;;2.66;89.08;98254.86;118677;1151;65114;-79
2021/01/05 08:12:47;;;;;;;31.37;25.60;;;;;;;2.60;89.00;98263.02;119053;1150;65143;-83
2021/01/05 08:15:19;;;;;;;34.77;26.77;;;;;;;2.54;88.85;98260.68;119394;1150;65121;-82
2021/01/05 08:17:46;;;;;;;32.57;25.30;;;;;;;2.49;89.00;98249.52;119327;1150;65102;-82
2021/01/05 08:20:16;;;;;;;31.33;25.20;;;;;;;2.48;88.57;98250.45;119317;1150;65028;-82
2021/01/05 08:22:43;;;;;;;37.37;27.73;;;;;;;2.46;88.80;98247.03;119113;1150;65144;-82
2021/01/05 08:25:10;;;;;;;38.53;27.17;;;;;;;2.47;88.91;98244.31;119300;1151;65172;-81
2021/01/05 08:27:36;;;;;;;37.40;30.13;;;;;;;2.47;88.97;98253.98;119071;1151;65220;-81
2021/01/05 08:30:05;;;;;;;36.67;30.13;;;;;;;2.51;89.36;98250.30;119260;1150;65119;-81
2021/01/05 08:32:32;;;;;;;38.70;31.47;;;;;;;2.50;89.21;98248.58;119333;1151;65231;-81
2021/01/05 08:34:59;;;;;;;39.40;30.17;;;;;;;2.44;88.76;98248.87;119304;1150;65111;-81
2021/01/05 08:37:25;;;;;;;41.85;31.60;;;;;;;2.39;88.99;98251.70;119343;1151;65300;-81
2021/01/05 08:39:52;;;;;;;42.73;28.63;;;;;;;2.35;88.82;98250.16;119307;1150;65201;-81
2021/01/05 08:42:18;;;;;;;39.23;27.70;;;;;;;2.36;89.15;98254.48;119310;1150;65083;-81
2021/01/05 08:44:44;;;;;;;46.90;31.50;;;;;;;2.35;89.12;98243.12;119277;1149;65137;-80
2021/01/05 08:47:11;;;;;;;42.17;31.10;;;;;;;2.35;88.67;98231.75;119332;1150;65111;-81
2021/01/05 08:49:38;;;;;;;51.37;37.00;;;;;;;2.30;88.62;98241.63;119320;1150;65200;-81
2021/01/05 08:52:04;;;;;;;47.23;35.20;;;;;;;2.27;89.07;98237.36;119341;1151;65200;-81
2021/01/05 08:54:30;;;;;;;44.00;33.57;;;;;;;2.25;88.97;98227.83;119277;1151;65576;-81
2021/01/05 08:57:01;;;;;;;46.40;32.80;;;;;;;2.27;89.05;98242.62;119300;1151;65095;-81
2021/01/05 08:59:27;;;;;;;42.93;31.87;;;;;;;2.30;88.78;98236.37;119279;1151;65095;-81
2021/01/05 09:01:54;;;;;;;39.90;31.30;;;;;;;2.35;89.01;98239.64;119091;1150;65209;-81
2021/01/05 09:04:20;;;;;;;48.00;33.70;;;;;;;2.40;88.91;98242.91;119338;1150;65146;-81
2021/01/05 09:06:55;;;;;;;48.17;32.83;;;;;;;2.39;88.58;98243.81;118840;1151;65129;-80
2021/01/05 09:09:22;;;;;;;47.23;33.37;;;;;;;2.36;88.57;98239.55;118871;1150;65117;-81
2021/01/05 09:11:53;;;;;;;43.93;31.53;;;;;;;2.36;88.63;98236.92;119165;1151;65217;-80
2021/01/05 09:14:22;;;;;;;39.97;29.07;;;;;;;2.34;88.46;98240.55;119253;1151;65193;-80
2021/01/05 09:16:48;;;;;;;47.00;32.27;;;;;;;2.35;88.61;98240.48;118986;1150;65117;-83
2021/01/05 09:19:15;;;;;;;46.43;32.07;;;;;;;2.37;88.29;98243.03;118845;1150;65195;-80
2021/01/05 09:21:46;;;;;;;53.20;36.37;;;;;;;2.32;88.26;98234.53;118823;1150;65140;-81
2021/01/05 09:24:14;;;;;;;56.90;38.97;;;;;;;2.31;88.48;98235.44;119110;1150;65124;-80
2021/01/05 09:26:40;;;;;;;53.57;36.17;;;;;;;2.34;88.38;98233.53;119079;1151;65137;-80
2021/01/05 09:29:08;;;;;;;52.20;34.90;;;;;;;2.31;88.33;98232.80;119355;1150;65101;-80
2021/01/05 09:31:46;;;;;;;54.53;36.13;;;;;;;2.28;88.18;98236.42;119098;1151;65149;-81
2021/01/05 09:34:15;;;;;;;50.85;34.30;;;;;;;2.30;87.95;98237.22;119306;1150;65120;-80
2021/01/05 09:36:41;;;;;;;49.33;33.80;;;;;;;2.28;88.18;98231.16;119325;1151;65121;-80
2021/01/05 09:39:11;;;;;;;50.60;34.10;;;;;;;2.33;88.17;98233.59;119091;1151;65267;-81
2021/01/05 09:41:40;;;;;;;;;;;;;;;2.33;88.19;98234.44;119358;1151;65143;-81
2021/01/05 09:44:08;;;;;;;53.50;35.33;;;;;;;2.30;88.07;98226.70;119068;1150;65309;-82
2021/01/05 09:46:35;;;;;;;57.60;37.87;;;;;;;2.35;88.44;98229.12;119288;1151;65101;-82
2021/01/05 09:49:01;;;;;;;54.03;35.40;;;;;;;2.29;87.91;98222.38;118962;1149;65126;-80
2021/01/05 09:51:31;;;;;;;55.45;35.65;;;;;;;2.28;87.77;98225.06;118688;1150;65167;-80
2021/01/05 09:53:57;;;;;;;47.55;31.45;;;;;;;2.30;87.87;98212.70;118968;1150;65184;-80
2021/01/05 09:56:24;;;;;;;46.03;32.47;;;;;;;2.29;87.82;98211.86;119064;1150;65157;-82
2021/01/05 09:58:50;;;;;;;54.90;35.33;;;;;;;2.32;87.87;98214.34;119307;1151;65156;-80
2021/01/05 10:38:34;;;;;;;47.73;34.03;;;;;;;2.19;87.68;98185.13;118897;1150;65037;-82
2021/01/05 10:41:13;;;;;;;45.53;32.50;;;;;;;2.18;87.82;98178.15;119276;1151;65132;-79
2021/01/05 10:43:39;;;;;;;45.50;32.93;;;;;;;2.23;88.11;98180.58;119070;1151;65564;-81
2021/01/05 10:46:06;;;;;;;49.23;34.20;;;;;;;2.25;87.89;98175.26;119305;1151;65197;-81
2021/01/05 10:48:32;;;;;;;45.05;33.95;;;;;;;2.28;87.81;98173.33;119262;1150;65166;-80
2021/01/05 10:50:59;;;;;;;56.50;40.50;;;;;;;2.30;88.13;98182.00;118720;1151;65223;-81
2021/01/05 10:53:28;;;;;;;53.93;37.57;;;;;;;2.29;87.95;98182.94;118761;1150;65129;-82
2021/01/05 10:55:55;;;;;;;55.63;38.83;;;;;;;2.30;88.00;98189.05;118528;1151;65210;-80
2021/01/05 10:58:21;;;;;;;51.35;35.70;;;;;;;2.27;87.77;98179.52;118718;1150;65220;-80
2021/01/05 11:00:48;;;;;;;48.40;35.07;;;;;;;2.22;87.62;98178.88;118480;1151;65037;-80
2021/01/05 11:03:14;;;;;;;50.93;34.77;;;;;;;2.24;87.76;98184.05;118729;1150;65168;-80
2021/01/05 11:05:40;;;;;;;47.55;31.80;;;;;;;2.20;87.93;98180.72;118718;1150;65111;-82
2021/01/05 11:08:08;;;;;;;51.53;34.50;;;;;;;2.18;87.84;98182.56;118670;1150;65197;-82
2021/01/05 11:10:35;;;;;;;54.10;35.97;;;;;;;2.14;87.80;98173.97;118764;1151;65101;-79
2021/01/05 11:13:01;;;;;;;57.20;35.70;;;;;;;2.11;87.72;98171.49;118659;1150;65104;-81
2021/01/05 11:15:28;;;;;;;52.95;36.00;;;;;;;2.09;87.80;98178.59;118434;1151;65309;-80
2021/01/05 11:17:54;;;;;;;51.20;33.83;;;;;;;2.11;88.09;98181.16;118534;1151;65238;-80
2021/01/05 11:20:21;;;;;;;45.90;32.35;;;;;;;2.08;88.19;98182.16;118506;1151;65203;-80
2021/01/05 11:22:49;;;;;;;45.20;32.50;;;;;;;2.06;88.17;98173.48;118696;1151;65063;-82
2021/01/05 11:25:18;;;;;;;47.03;32.53;;;;;;;2.06;88.09;98175.26;118553;1150;65207;-80
2021/01/05 11:27:45;;;;;;;45.23;33.60;;;;;;;2.01;88.21;98167.58;118777;1150;65063;-81
2021/01/05 11:30:19;;;;;;;47.30;32.77;;;;;;;1.99;87.85;98169.41;118767;1148;65163;-80
2021/01/05 11:32:46;;;;;;;46.70;32.07;;;;;;;1.96;87.95;98166.93;118520;1151;65188;-80
2021/01/05 11:35:14;;;;;;;42.75;31.65;;;;;;;1.90;87.82;98162.81;118505;1151;65204;-80
2021/01/05 11:37:41;;;;;;;40.75;30.20;;;;;;;1.87;87.77;98169.96;119101;1151;65104;-82
2021/01/05 11:40:09;;;;;;;40.30;27.63;;;;;;;1.84;88.17;98163.06;119031;1151;65246;-82
2021/01/05 11:42:36;;;;;;;39.75;26.90;;;;;;;1.81;87.96;98165.84;119234;1150;65132;-81
2021/01/05 11:45:06;;;;;;;41.47;29.10;;;;;;;1.80;87.78;98165.92;118555;1151;65132;-81
2021/01/05 11:47:32;;;;;;;45.15;30.77;;;;;;;1.77;88.20;98164.28;118733;1150;65104;-80
2021/01/05 11:49:59;;;;;;;48.37;31.57;;;;;;;1.76;87.93;98167.81;118682;1150;65069;-80
2021/01/05 11:52:26;;;;;;;44.93;30.37;;;;;;;1.75;88.08;98164.34;118635;1151;65295;-80
2021/01/05 11:54:52;;;;;;;49.63;32.00;;;;;;;1.73;88.31;98163.55;118802;1150;65204;-81
2021/01/05 11:57:18;;;;;;;43.97;31.10;;;;;;;1.77;88.50;98159.03;119307;1150;65163;-81
2021/01/05 11:59:45;;;;;;;44.13;30.43;;;;;;;1.77;88.42;98158.19;119310;1150;65121;-81
2021/01/05 12:02:12;;;;;;;43.17;29.03;;;;;;;1.75;88.43;98156.46;119347;1151;65616;-81
2021/01/05 12:04:39;;;;;;;42.78;29.02;;;;;;;1.77;88.42;98163.44;119104;1151;65111;-81
2021/01/05 12:07:06;;;;;;;45.15;31.95;;;;;;;1.78;88.73;98159.88;119070;1150;65095;-81
2021/01/05 12:09:32;;;;;;;50.20;33.23;;;;;;;1.80;88.49;98164.14;119017;1150;65152;-81
2021/01/05 12:12:01;;;;;;;48.30;32.80;;;;;;;1.79;88.47;98158.95;118791;1150;65073;-81
2021/01/05 12:14:28;;;;;;;45.20;30.70;;;;;;;1.81;88.58;98159.73;118762;1150;65580;-80